Startpagina
METAR-TAF:

METAR-TAF

Vliegvelden :

Cocoseilanden, Australië

breedte: 12-11S, lengte: 096-49E, hoogte: 3 m

Actueel weer

Dit bericht is 34 minuten geleden gemaakt, om 04:00 UTC
Wind 17 kt uit het zuidoosten
Temperatuur 26°C
Vochtigheid 74%
Druk 1015 hPa
Zicht 10 km of meer
Verspreide wolken op 2400 ft

METAR: YPCC 260400Z 13017KT 9999 SCT024 26/21 Q1015

Tijdstip: 11:04 (04:34 UTC)

Verwachting

Dit bericht is 5 uur en het 24 minuten geleden gemaakt, om 23:10 UTC
Verwachting geldig van 26 om 00 UTC tot 26 om 24 UTC
Wind 18 kt uit het zuidoosten
Zicht 10 km of meer
Verspreide wolken op 2500 ft

TAF: YPCC 252310Z 2600/2624 13018KT 9999 SCT025

Waarnemingen en weersverwachtingen van meer dan 4000 vliegvelden (METAR en TAF).

De beschikbare stations zijn de gele en rode punten op de kaart.

Ga met uw muis naar het station om de naam te zien.

Klik dan om waarnemingen en weersverwachtingen te zien.

kaart wijzigen: klik op de groene knoppen met een zwart kruis om in te zoomen, op de groene knop met een streepje om uit te zoomen of op de groene pijlen voor aangrenzende kaarten.


METAR-TAF: